Bavaria, Kansas
Current Conditions -  °F | °C
As of 7:53 PM on Wednesday 22 Oct 2014 (Local Time) from KSLN Reporting Station
Overcast Overcast  
Wind Chill: 65°   Ceiling: 10000
Heat Index: 65°   Visibility: 10mi
Dew Point: 59°   Wind: 15mph
Humidity: 81%   Direction: 200°SSW
Pressure: 30.06"   Gusts: NA
Location:  38.8424°N, 97.6193°W
Report Text: KSLN 230053Z 20013KT 10SM OVC100 18/15 A3006 RMK AO2 RAE36 SLP173 P0004 T01830150
Loading
Personal Weather Stations






























Interactive Weather Map
Tropical Storm Tracking
New forecast layout! Learn more

10-Day Weather Forecast

Advertisements
Track Severe Weather on mobile